Time;durP1;ratioP1;P1;durP2;ratioP2;P2;SDS_P1;SDS_P2;PMS_P1;PMS_P2;Temp;Humidity;BMP_temperature;BMP_pressure;BME280_temperature;BME280_humidity;BME280_pressure;Samples;Min_cycle;Max_cycle;Signal;HPM_P1;HPM_P2
2024/03/11 00:02:07;;;;;;;0.10;0.10;;;;;;;;;;5105530;28;20306;-68
2024/03/11 00:04:34;;;;;;;0.10;0.10;;;;;;;;;;5089409;28;20271;-67
2024/03/11 00:07:01;;;;;;;0.10;0.10;;;;;;;;;;5106338;28;20564;-68
2024/03/11 00:09:32;;;;;;;0.10;0.10;;;;;;;;;;5088923;28;20228;-68
2024/03/11 00:11:59;;;;;;;0.10;0.10;;;;;;;;;;5105858;28;20255;-67
2024/03/11 00:14:28;;;;;;;0.10;0.10;;;;;;;;;;5089031;28;20204;-69
2024/03/11 00:16:57;;;;;;;0.10;0.10;;;;;;;;;;5104836;28;20630;-68
2024/03/11 00:19:24;;;;;;;0.40;0.40;;;;;;;;;;5089851;28;20218;-67
2024/03/11 00:21:52;;;;;;;0.10;0.10;;;;;;;;;;5103227;28;20244;-70
2024/03/11 00:24:19;;;;;;;0.10;0.10;;;;;;;;;;5091015;28;20215;-68
2024/03/11 00:26:46;;;;;;;0.10;0.10;;;;;;;;;;5102159;28;20242;-68
2024/03/11 00:29:14;;;;;;;0.10;0.10;;;;;;;;;;5092056;28;20242;-68
2024/03/11 00:31:40;;;;;;;0.10;0.10;;;;;;;;;;5099784;28;20270;-68
2024/03/11 00:34:08;;;;;;;0.10;0.10;;;;;;;;;;5093790;28;20205;-68
2024/03/11 00:36:35;;;;;;;0.10;0.10;;;;;;;;;;5099121;28;20239;-68
2024/03/11 00:39:01;;;;;;;0.20;0.20;;;;;;;;;;5095094;28;20209;-67
2024/03/11 00:41:28;;;;;;;0.10;0.10;;;;;;;;;;5096910;28;20258;-68
2024/03/11 00:43:54;;;;;;;0.30;0.30;;;;;;;;;;5096922;28;20220;-68
2024/03/11 00:46:21;;;;;;;0.10;0.10;;;;;;;;;;5095323;28;20456;-67
2024/03/11 00:48:47;;;;;;;0.10;0.10;;;;;;;;;;5098666;28;20213;-68
2024/03/11 00:51:15;;;;;;;0.77;0.77;;;;;;;;;;5093079;28;20475;-68
2024/03/11 00:53:42;;;;;;;0.10;0.10;;;;;;;;;;5100310;28;20238;-69
2024/03/11 00:56:08;;;;;;;0.10;0.10;;;;;;;;;;5091294;28;20306;-68
2024/03/11 00:58:35;;;;;;;0.10;0.10;;;;;;;;;;5102022;28;20248;-68
2024/03/11 01:01:02;;;;;;;0.10;0.10;;;;;;;;;;5089513;28;20568;-67
2024/03/11 01:03:29;;;;;;;0.10;0.10;;;;;;;;;;5103428;28;20231;-67
2024/03/11 01:05:56;;;;;;;0.10;0.10;;;;;;;;;;5087688;28;20239;-67
2024/03/11 01:08:24;;;;;;;0.10;0.10;;;;;;;;;;5104855;28;20248;-67
2024/03/11 01:10:52;;;;;;;0.10;0.10;;;;;;;;;;5086394;28;20263;-69
2024/03/11 01:13:19;;;;;;;0.10;0.10;;;;;;;;;;5105870;28;20237;-68
2024/03/11 01:15:46;;;;;;;0.10;0.10;;;;;;;;;;5084787;28;20235;-68
2024/03/11 01:18:14;;;;;;;0.10;0.10;;;;;;;;;;5107512;28;20201;-68
2024/03/11 01:20:40;;;;;;;0.10;0.10;;;;;;;;;;5083269;28;20253;-68
2024/03/11 01:23:07;;;;;;;0.10;0.10;;;;;;;;;;5109085;28;20229;-68
2024/03/11 01:25:36;;;;;;;0.10;0.10;;;;;;;;;;5081702;28;20242;-67
2024/03/11 01:28:03;;;;;;;0.10;0.10;;;;;;;;;;5110245;28;20242;-68
2024/03/11 01:30:29;;;;;;;0.10;0.10;;;;;;;;;;5080410;28;20243;-67
2024/03/11 01:32:56;;;;;;;0.30;0.30;;;;;;;;;;5111681;28;20248;-70
2024/03/11 01:35:22;;;;;;;0.10;0.10;;;;;;;;;;5078247;28;20227;-67
2024/03/11 01:37:49;;;;;;;0.10;0.10;;;;;;;;;;5113644;28;20194;-68
2024/03/11 01:40:15;;;;;;;0.20;0.20;;;;;;;;;;5076401;28;20214;-67
2024/03/11 01:42:43;;;;;;;0.10;0.10;;;;;;;;;;5115564;28;20404;-68
2024/03/11 01:45:11;;;;;;;0.10;0.10;;;;;;;;;;5076612;28;20206;-68
2024/03/11 01:47:38;;;;;;;0.10;0.10;;;;;;;;;;5116509;28;20251;-68
2024/03/11 01:50:07;;;;;;;0.10;0.10;;;;;;;;;;5084451;28;20253;-69
2024/03/11 01:52:34;;;;;;;0.10;0.10;;;;;;;;;;5072860;28;20209;-68
2024/03/11 01:55:03;;;;;;;0.10;0.10;;;;;;;;;;5084352;28;20238;-67
2024/03/11 01:57:30;;;;;;;0.10;0.10;;;;;;;;;;5106813;28;20495;-68
2024/03/11 01:59:58;;;;;;;0.10;0.10;;;;;;;;;;5084520;28;20215;-68
2024/03/11 02:02:25;;;;;;;0.10;0.10;;;;;;;;;;5106788;28;20313;-67
2024/03/11 02:04:51;;;;;;;0.10;0.10;;;;;;;;;;5084671;28;20195;-67
2024/03/11 02:07:19;;;;;;;0.10;0.10;;;;;;;;;;5106633;28;20238;-68
2024/03/11 02:09:44;;;;;;;0.27;0.27;;;;;;;;;;5083928;28;20235;-67
2024/03/11 02:12:14;;;;;;;0.10;0.10;;;;;;;;;;5106420;28;20270;-68
2024/03/11 02:14:41;;;;;;;0.10;0.10;;;;;;;;;;5084467;28;20509;-68
2024/03/11 02:17:09;;;;;;;0.10;0.10;;;;;;;;;;5105906;28;20239;-67
2024/03/11 02:19:35;;;;;;;0.10;0.10;;;;;;;;;;5084505;28;20241;-67
2024/03/11 02:22:03;;;;;;;0.10;0.10;;;;;;;;;;5104086;28;20241;-67
2024/03/11 02:24:31;;;;;;;0.10;0.10;;;;;;;;;;5085523;28;20247;-67
2024/03/11 02:26:57;;;;;;;0.10;0.10;;;;;;;;;;5102813;28;20234;-68
2024/03/11 02:29:24;;;;;;;0.10;0.10;;;;;;;;;;5087267;28;20232;-67
2024/03/11 02:31:51;;;;;;;0.10;0.10;;;;;;;;;;5101117;28;20426;-71
2024/03/11 02:34:18;;;;;;;0.10;0.10;;;;;;;;;;5088154;28;20257;-68
2024/03/11 02:36:46;;;;;;;0.10;0.10;;;;;;;;;;5099114;28;20440;-68
2024/03/11 02:39:14;;;;;;;0.10;0.10;;;;;;;;;;5090184;28;20208;-68
2024/03/11 02:41:42;;;;;;;0.10;0.10;;;;;;;;;;5098228;28;20455;-68
2024/03/11 02:44:09;;;;;;;0.10;0.10;;;;;;;;;;5091175;28;20250;-67
2024/03/11 02:46:35;;;;;;;0.10;0.10;;;;;;;;;;5096714;28;20239;-67
2024/03/11 02:49:04;;;;;;;0.10;0.10;;;;;;;;;;5092825;28;20274;-68
2024/03/11 02:51:31;;;;;;;0.10;0.10;;;;;;;;;;5095832;28;20256;-68
2024/03/11 02:53:57;;;;;;;0.13;0.13;;;;;;;;;;5093783;28;20245;-67
2024/03/11 02:56:24;;;;;;;0.10;0.10;;;;;;;;;;5093534;28;20248;-67
2024/03/11 02:58:54;;;;;;;0.10;0.10;;;;;;;;;;5095612;28;20446;-68
2024/03/11 03:01:20;;;;;;;0.20;0.20;;;;;;;;;;5092744;28;20249;-67
2024/03/11 03:03:47;;;;;;;0.10;0.10;;;;;;;;;;5096754;28;20432;-67
2024/03/11 03:06:16;;;;;;;0.10;0.10;;;;;;;;;;5090581;28;20308;-67
2024/03/11 03:08:43;;;;;;;0.10;0.10;;;;;;;;;;5097540;28;20196;-67
2024/03/11 03:11:13;;;;;;;2.67;2.57;;;;;;;;;;5089406;28;20292;-67
2024/03/11 03:13:39;;;;;;;0.10;0.10;;;;;;;;;;5098584;28;20225;-68
2024/03/11 03:16:08;;;;;;;0.10;0.10;;;;;;;;;;5088494;28;20237;-68
2024/03/11 03:18:35;;;;;;;0.10;0.10;;;;;;;;;;5100055;28;20309;-68
2024/03/11 03:21:02;;;;;;;0.10;0.10;;;;;;;;;;5087331;28;20242;-67
2024/03/11 03:23:28;;;;;;;0.10;0.10;;;;;;;;;;5101244;28;20227;-67
2024/03/11 03:25:54;;;;;;;0.10;0.10;;;;;;;;;;5085133;28;20238;-69
2024/03/11 03:28:21;;;;;;;0.10;0.10;;;;;;;;;;5103397;28;20278;-67
2024/03/11 03:30:48;;;;;;;0.10;0.10;;;;;;;;;;5083299;28;20237;-68
2024/03/11 03:33:16;;;;;;;0.60;0.60;;;;;;;;;;5104866;28;20225;-67
2024/03/11 03:35:42;;;;;;;2.53;2.43;;;;;;;;;;5082038;28;20237;-67
2024/03/11 03:38:09;;;;;;;0.10;0.10;;;;;;;;;;5106291;28;20279;-68
2024/03/11 03:40:35;;;;;;;0.63;0.63;;;;;;;;;;5079786;28;20241;-67
2024/03/11 03:43:03;;;;;;;0.17;0.17;;;;;;;;;;5108482;28;20231;-68
2024/03/11 03:45:30;;;;;;;0.10;0.10;;;;;;;;;;5078658;28;20315;-67
2024/03/11 03:47:56;;;;;;;0.50;0.50;;;;;;;;;;5109710;28;20275;-68
2024/03/11 03:50:24;;;;;;;0.10;0.10;;;;;;;;;;5076184;28;20583;-68
2024/03/11 03:52:51;;;;;;;0.10;0.10;;;;;;;;;;5111560;28;20188;-68
2024/03/11 03:55:17;;;;;;;0.20;0.20;;;;;;;;;;5074709;28;20208;-68
2024/03/11 03:57:44;;;;;;;0.50;0.50;;;;;;;;;;5113234;28;20242;-68
2024/03/11 04:00:15;;;;;;;0.17;0.17;;;;;;;;;;5074813;28;20211;-69
2024/03/11 04:02:41;;;;;;;0.23;0.23;;;;;;;;;;5113681;28;20431;-67
2024/03/11 04:05:09;;;;;;;0.10;0.10;;;;;;;;;;5081593;28;20206;-71
2024/03/11 04:07:39;;;;;;;0.20;0.20;;;;;;;;;;5116790;28;20228;-68
2024/03/11 04:10:06;;;;;;;0.30;0.30;;;;;;;;;;5086027;28;20227;-68
2024/03/11 04:12:32;;;;;;;0.20;0.20;;;;;;;;;;5108913;28;20257;-67
2024/03/11 04:14:58;;;;;;;0.10;0.10;;;;;;;;;;5086209;28;20240;-68
2024/03/11 04:17:25;;;;;;;0.73;0.27;;;;;;;;;;5108889;28;20249;-67
2024/03/11 04:19:51;;;;;;;0.10;0.10;;;;;;;;;;5086080;28;20237;-69
2024/03/11 04:22:19;;;;;;;0.10;0.10;;;;;;;;;;5108601;28;20487;-67
2024/03/11 04:24:46;;;;;;;0.20;0.20;;;;;;;;;;5086127;28;20241;-68
2024/03/11 04:27:13;;;;;;;0.13;0.13;;;;;;;;;;5108452;28;20446;-67
2024/03/11 04:29:39;;;;;;;0.10;0.10;;;;;;;;;;5086300;28;20226;-67
2024/03/11 04:32:06;;;;;;;3.77;3.50;;;;;;;;;;5107476;28;20253;-68
2024/03/11 04:34:33;;;;;;;0.20;0.20;;;;;;;;;;5086376;28;20222;-69
2024/03/11 04:36:59;;;;;;;0.10;0.10;;;;;;;;;;5105471;28;20258;-68
2024/03/11 04:39:25;;;;;;;0.10;0.10;;;;;;;;;;5088628;28;20231;-67
2024/03/11 04:41:53;;;;;;;0.20;0.20;;;;;;;;;;5103415;28;20249;-68
2024/03/11 04:44:20;;;;;;;0.10;0.10;;;;;;;;;;5090052;28;20233;-67
2024/03/11 04:46:46;;;;;;;1.13;1.13;;;;;;;;;;5101714;28;20238;-68
2024/03/11 04:49:13;;;;;;;0.10;0.10;;;;;;;;;;5091751;28;20205;-68
2024/03/11 04:51:39;;;;;;;0.20;0.20;;;;;;;;;;5099890;28;20238;-68
2024/03/11 04:54:08;;;;;;;0.10;0.10;;;;;;;;;;5093636;28;20199;-68
2024/03/11 04:56:34;;;;;;;0.10;0.10;;;;;;;;;;5098193;28;20276;-67
2024/03/11 04:59:04;;;;;;;0.10;0.10;;;;;;;;;;5094533;28;20209;-66
2024/03/11 05:01:31;;;;;;;0.10;0.10;;;;;;;;;;5096871;28;20238;-69
2024/03/11 05:03:58;;;;;;;1.60;1.60;;;;;;;;;;5095945;28;20232;-67
2024/03/11 05:06:25;;;;;;;0.73;0.43;;;;;;;;;;5095492;28;20255;-67
2024/03/11 05:08:51;;;;;;;0.20;0.20;;;;;;;;;;5096910;28;20204;-68
2024/03/11 05:11:18;;;;;;;0.10;0.10;;;;;;;;;;5093460;28;20238;-68
2024/03/11 05:13:49;;;;;;;0.10;0.10;;;;;;;;;;5099299;28;20525;-68
2024/03/11 05:16:17;;;;;;;0.10;0.10;;;;;;;;;;5093112;28;20238;-68
2024/03/11 05:18:44;;;;;;;0.10;0.10;;;;;;;;;;5098899;28;20240;-68
2024/03/11 05:21:10;;;;;;;0.10;0.10;;;;;;;;;;5091474;28;20250;-68
2024/03/11 05:23:37;;;;;;;0.10;0.10;;;;;;;;;;5101223;28;20254;-68
2024/03/11 05:26:04;;;;;;;0.10;0.10;;;;;;;;;;5089220;28;20301;-68
2024/03/11 05:28:31;;;;;;;0.10;0.10;;;;;;;;;;5102388;28;20326;-67
2024/03/11 05:30:58;;;;;;;0.20;0.20;;;;;;;;;;5087945;28;20238;-68
2024/03/11 05:33:25;;;;;;;0.10;0.10;;;;;;;;;;5104116;28;20199;-67
2024/03/11 05:35:52;;;;;;;0.10;0.10;;;;;;;;;;5086374;28;20444;-68
2024/03/11 05:38:19;;;;;;;0.10;0.10;;;;;;;;;;5105265;28;20231;-68
2024/03/11 05:40:47;;;;;;;0.10;0.10;;;;;;;;;;5084175;28;20256;-68
2024/03/11 05:43:13;;;;;;;0.10;0.10;;;;;;;;;;5106785;28;20262;-68
2024/03/11 05:45:40;;;;;;;0.10;0.10;;;;;;;;;;5082957;28;20454;-67
2024/03/11 05:48:08;;;;;;;0.10;0.10;;;;;;;;;;5108421;28;20192;-68
2024/03/11 05:50:37;;;;;;;0.10;0.10;;;;;;;;;;5081031;28;20238;-67
2024/03/11 05:53:04;;;;;;;0.10;0.10;;;;;;;;;;5109811;28;20238;-68
2024/03/11 05:55:32;;;;;;;0.10;0.10;;;;;;;;;;5080091;28;20245;-68
2024/03/11 05:58:02;;;;;;;0.10;0.10;;;;;;;;;;5110413;28;20210;-67
2024/03/11 06:00:31;;;;;;;0.10;0.10;;;;;;;;;;5078458;28;20203;-68
2024/03/11 06:02:57;;;;;;;0.20;0.20;;;;;;;;;;5111577;28;20219;-68
2024/03/11 06:05:24;;;;;;;0.10;0.10;;;;;;;;;;5078028;28;20441;-68
2024/03/11 06:07:52;;;;;;;0.10;0.10;;;;;;;;;;5113030;28;20192;-68
2024/03/11 06:10:19;;;;;;;0.13;0.13;;;;;;;;;;5076316;28;20236;-67
2024/03/11 06:12:46;;;;;;;0.20;0.20;;;;;;;;;;5113898;28;20220;-69
2024/03/11 06:15:15;;;;;;;0.20;0.20;;;;;;;;;;5073511;28;20200;-68
2024/03/11 06:17:41;;;;;;;0.10;0.10;;;;;;;;;;5115059;28;20194;-68
2024/03/11 06:20:09;;;;;;;0.10;0.10;;;;;;;;;;5083916;28;20242;-68
2024/03/11 06:22:35;;;;;;;0.30;0.30;;;;;;;;;;5072458;28;20207;-67
2024/03/11 06:25:04;;;;;;;0.53;0.53;;;;;;;;;;5083890;28;20210;-68
2024/03/11 06:27:30;;;;;;;0.10;0.10;;;;;;;;;;5106263;28;20241;-68
2024/03/11 06:29:57;;;;;;;0.10;0.10;;;;;;;;;;5083620;28;20240;-68
2024/03/11 06:32:23;;;;;;;0.10;0.10;;;;;;;;;;5105967;28;20273;-67
2024/03/11 06:34:51;;;;;;;0.40;0.40;;;;;;;;;;5083831;28;20545;-68
2024/03/11 06:37:18;;;;;;;0.10;0.10;;;;;;;;;;5106043;28;20260;-67
2024/03/11 06:39:44;;;;;;;0.10;0.10;;;;;;;;;;5083788;28;20305;-68
2024/03/11 06:42:12;;;;;;;0.87;0.50;;;;;;;;;;5106074;28;20305;-67
2024/03/11 06:44:38;;;;;;;0.33;0.33;;;;;;;;;;5083506;28;20291;-68
2024/03/11 06:47:05;;;;;;;0.10;0.10;;;;;;;;;;5104530;28;20244;-70
2024/03/11 06:49:32;;;;;;;0.10;0.10;;;;;;;;;;5084655;28;20199;-67
2024/03/11 06:51:59;;;;;;;0.10;0.10;;;;;;;;;;5102910;28;20515;-68
2024/03/11 06:54:25;;;;;;;0.20;0.20;;;;;;;;;;5086468;28;20228;-68
2024/03/11 06:56:52;;;;;;;0.20;0.20;;;;;;;;;;5100546;28;20238;-68
2024/03/11 06:59:20;;;;;;;0.10;0.10;;;;;;;;;;5088067;28;20239;-67
2024/03/11 07:01:46;;;;;;;1.47;1.40;;;;;;;;;;5099224;28;20250;-68
2024/03/11 07:04:13;;;;;;;0.10;0.10;;;;;;;;;;5089839;28;20421;-68
2024/03/11 07:06:39;;;;;;;0.10;0.10;;;;;;;;;;5097370;28;20296;-67
2024/03/11 07:09:06;;;;;;;0.17;0.17;;;;;;;;;;5091683;28;20426;-67
2024/03/11 07:11:32;;;;;;;0.10;0.10;;;;;;;;;;5095542;28;20238;-70
2024/03/11 07:13:58;;;;;;;0.10;0.10;;;;;;;;;;5093225;28;20207;-67
2024/03/11 07:16:27;;;;;;;3.10;0.53;;;;;;;;;;5093868;28;20243;-67
2024/03/11 07:18:54;;;;;;;0.10;0.10;;;;;;;;;;5094838;28;20204;-68
2024/03/11 07:21:27;;;;;;;0.10;0.10;;;;;;;;;;5092376;28;20249;-71
2024/03/11 07:23:54;;;;;;;0.10;0.10;;;;;;;;;;5094712;28;20222;-68
2024/03/11 07:26:30;;;;;;;0.60;0.60;;;;;;;;;;5087743;28;20250;-68
2024/03/11 07:29:01;;;;;;;0.10;0.10;;;;;;;;;;5098558;28;20209;-68
2024/03/11 07:31:29;;;;;;;0.10;0.10;;;;;;;;;;5094191;28;20244;-68
2024/03/11 07:33:57;;;;;;;0.20;0.20;;;;;;;;;;5094279;28;20201;-67
2024/03/11 07:36:26;;;;;;;0.30;0.30;;;;;;;;;;5090526;28;20243;-69
2024/03/11 07:39:10;;;;;;;0.20;0.20;;;;;;;;;;5096996;28;20206;-69
2024/03/11 07:42:07;;;;;;;0.10;0.10;;;;;;;;;;5093339;28;20409;-69
2024/03/11 07:44:35;;;;;;;0.10;0.10;;;;;;;;;;5090440;28;20232;-69
2024/03/11 07:47:03;;;;;;;0.10;0.10;;;;;;;;;;5102880;28;20492;-69
2024/03/11 07:49:31;;;;;;;0.10;0.10;;;;;;;;;;5093051;28;20201;-69
2024/03/11 07:51:59;;;;;;;0.30;0.30;;;;;;;;;;5105880;28;20243;-69
2024/03/11 07:54:28;;;;;;;0.40;0.30;;;;;;;;;;5089699;28;20197;-69
2024/03/11 07:56:56;;;;;;;0.47;0.47;;;;;;;;;;5098639;28;20563;-69
2024/03/11 07:59:24;;;;;;;0.10;0.10;;;;;;;;;;5096915;28;20202;-69
2024/03/11 08:01:50;;;;;;;0.30;0.30;;;;;;;;;;5097025;27;20438;-71
2024/03/11 08:04:19;;;;;;;0.10;0.10;;;;;;;;;;5098457;28;20234;-69
2024/03/11 08:06:49;;;;;;;0.10;0.10;;;;;;;;;;5101504;28;20243;-68
2024/03/11 08:09:17;;;;;;;0.10;0.10;;;;;;;;;;5093003;28;20250;-69
2024/03/11 08:11:43;;;;;;;0.10;0.10;;;;;;;;;;5099699;28;20565;-74
2024/03/11 08:14:10;;;;;;;0.10;0.10;;;;;;;;;;5095099;28;20207;-74
2024/03/11 08:16:37;;;;;;;0.53;0.53;;;;;;;;;;5099947;28;20248;-74
2024/03/11 08:19:05;;;;;;;0.43;0.43;;;;;;;;;;5095036;28;20201;-73
2024/03/11 08:21:33;;;;;;;0.10;0.10;;;;;;;;;;5098629;28;20249;-74
2024/03/11 08:23:59;;;;;;;1.03;0.33;;;;;;;;;;5096294;28;20226;-74
2024/03/11 08:26:28;;;;;;;0.10;0.10;;;;;;;;;;5096599;28;20286;-74
2024/03/11 08:28:54;;;;;;;0.10;0.10;;;;;;;;;;5097544;28;20252;-74
2024/03/11 08:31:21;;;;;;;0.10;0.10;;;;;;;;;;5095223;28;20246;-74
2024/03/11 08:33:47;;;;;;;0.10;0.10;;;;;;;;;;5099111;28;20226;-74
2024/03/11 08:36:14;;;;;;;0.57;0.30;;;;;;;;;;5093195;28;20240;-74
2024/03/11 08:38:42;;;;;;;0.40;0.40;;;;;;;;;;5101212;28;20204;-74
2024/03/11 08:41:08;;;;;;;0.10;0.10;;;;;;;;;;5091672;28;20248;-74
2024/03/11 08:43:35;;;;;;;0.10;0.10;;;;;;;;;;5102315;28;20254;-75
2024/03/11 08:46:02;;;;;;;0.10;0.10;;;;;;;;;;5089419;28;20241;-74
2024/03/11 08:48:30;;;;;;;0.10;0.10;;;;;;;;;;5104466;28;20228;-74
2024/03/11 08:50:57;;;;;;;0.10;0.10;;;;;;;;;;5088306;28;20238;-74
2024/03/11 08:53:26;;;;;;;0.10;0.10;;;;;;;;;;5104474;28;20206;-74
2024/03/11 08:55:55;;;;;;;0.17;0.17;;;;;;;;;;5087353;28;20247;-74
2024/03/11 08:58:22;;;;;;;0.10;0.10;;;;;;;;;;5105873;28;20244;-74
2024/03/11 09:00:51;;;;;;;0.10;0.10;;;;;;;;;;5086155;28;20464;-74
2024/03/11 09:03:18;;;;;;;0.93;0.93;;;;;;;;;;5106858;28;20261;-74
2024/03/11 09:05:45;;;;;;;0.53;0.47;;;;;;;;;;5084759;28;20446;-74
2024/03/11 09:08:12;;;;;;;0.10;0.10;;;;;;;;;;5107966;28;20204;-74
2024/03/11 09:10:38;;;;;;;0.10;0.10;;;;;;;;;;5082801;28;20305;-74
2024/03/11 09:13:07;;;;;;;0.05;0.05;;;;;;;;;;5110149;28;20211;-74
2024/03/11 09:15:34;;;;;;;0.00;0.00;;;;;;;;;;5081934;28;20240;-74
2024/03/11 09:18:00;;;;;;;0.00;0.00;;;;;;;;;;5110954;28;20211;-74
2024/03/11 09:20:27;;;;;;;0.00;0.00;;;;;;;;;;5079728;28;20233;-74
2024/03/11 09:22:55;;;;;;;0.00;0.00;;;;;;;;;;5112822;28;20223;-74
2024/03/11 09:25:23;;;;;;;0.00;0.00;;;;;;;;;;5078509;28;20230;-75
2024/03/11 09:27:51;;;;;;;0.00;0.00;;;;;;;;;;5113437;28;20202;-75
2024/03/11 09:30:19;;;;;;;0.30;0.30;;;;;;;;;;5077418;28;20275;-75
2024/03/11 09:32:46;;;;;;;0.10;0.10;;;;;;;;;;5114721;28;20195;-75
2024/03/11 09:35:16;;;;;;;0.00;0.00;;;;;;;;;;5075777;28;20260;-74
2024/03/11 09:37:44;;;;;;;0.10;0.10;;;;;;;;;;5115610;28;20300;-74
2024/03/11 09:40:11;;;;;;;0.00;0.00;;;;;;;;;;5075271;28;20405;-74
2024/03/11 09:42:37;;;;;;;0.10;0.10;;;;;;;;;;5116713;28;20237;-74
2024/03/11 09:45:07;;;;;;;0.10;0.10;;;;;;;;;;5084565;28;20302;-74
2024/03/11 09:47:35;;;;;;;0.10;0.10;;;;;;;;;;5106918;28;20241;-75
2024/03/11 09:50:02;;;;;;;0.28;0.28;;;;;;;;;;5084869;28;20425;-74
2024/03/11 09:52:30;;;;;;;0.00;0.00;;;;;;;;;;5106851;28;20303;-75
2024/03/11 09:54:58;;;;;;;0.13;0.13;;;;;;;;;;5084669;28;20231;-74
2024/03/11 09:57:25;;;;;;;0.10;0.10;;;;;;;;;;5106894;28;20243;-75
2024/03/11 09:59:54;;;;;;;0.10;0.10;;;;;;;;;;5084635;28;20206;-74
2024/03/11 10:02:22;;;;;;;0.10;0.10;;;;;;;;;;5106581;28;20248;-74
2024/03/11 10:04:53;;;;;;;0.45;0.45;;;;;;;;;;5083596;28;20451;-75
2024/03/11 10:07:22;;;;;;;0.10;0.10;;;;;;;;;;5106670;28;20247;-74
2024/03/11 10:09:49;;;;;;;0.10;0.10;;;;;;;;;;5084198;28;20228;-74
2024/03/11 10:12:16;;;;;;;0.00;0.00;;;;;;;;;;5106686;28;20241;-74
2024/03/11 10:14:43;;;;;;;0.27;0.27;;;;;;;;;;5084445;28;20389;-75
2024/03/11 10:17:21;;;;;;;0.10;0.10;;;;;;;;;;5106615;28;20241;-75
2024/03/11 10:19:51;;;;;;;0.10;0.10;;;;;;;;;;5084060;28;20241;-74
2024/03/11 10:22:23;;;;;;;0.10;0.10;;;;;;;;;;5106446;28;20301;-75
2024/03/11 10:24:52;;;;;;;0.10;0.10;;;;;;;;;;5083991;28;20215;-75
2024/03/11 10:27:19;;;;;;;0.00;0.00;;;;;;;;;;5106335;28;20270;-74
2024/03/11 10:29:45;;;;;;;0.10;0.10;;;;;;;;;;5084097;28;20204;-75
2024/03/11 10:32:21;;;;;;;0.10;0.10;;;;;;;;;;5106052;28;20271;-74
2024/03/11 10:34:54;;;;;;;0.10;0.10;;;;;;;;;;5084191;28;20482;-75
2024/03/11 10:37:21;;;;;;;0.10;0.10;;;;;;;;;;5106086;28;20241;-74
2024/03/11 10:39:48;;;;;;;0.17;0.17;;;;;;;;;;5083797;28;20205;-75
2024/03/11 10:42:28;;;;;;;0.20;0.20;;;;;;;;;;5106074;28;20309;-74
2024/03/11 10:44:54;;;;;;;0.10;0.10;;;;;;;;;;5083608;28;20224;-74
2024/03/11 10:47:23;;;;;;;0.10;0.10;;;;;;;;;;5105937;28;20283;-74
2024/03/11 10:49:50;;;;;;;0.10;0.10;;;;;;;;;;5083796;28;20274;-75
2024/03/11 10:52:20;;;;;;;0.10;0.10;;;;;;;;;;5105999;28;20273;-74
2024/03/11 10:54:47;;;;;;;0.00;0.00;;;;;;;;;;5083771;28;20373;-74
2024/03/11 10:57:27;;;;;;;0.10;0.10;;;;;;;;;;5105725;28;20278;-75
2024/03/11 10:59:54;;;;;;;0.10;0.10;;;;;;;;;;5083798;28;20261;-74
2024/03/11 11:02:22;;;;;;;0.00;0.00;;;;;;;;;;5105633;28;20252;-74
2024/03/11 11:04:52;;;;;;;0.20;0.20;;;;;;;;;;5083609;28;20231;-74
2024/03/11 11:07:20;;;;;;;0.10;0.10;;;;;;;;;;5105875;28;20268;-75
2024/03/11 11:09:49;;;;;;;0.30;0.30;;;;;;;;;;5083651;28;20393;-74
2024/03/11 11:12:22;;;;;;;0.10;0.10;;;;;;;;;;5105472;28;20259;-75
2024/03/11 11:14:49;;;;;;;0.10;0.10;;;;;;;;;;5083336;28;20189;-74
2024/03/11 11:17:17;;;;;;;0.10;0.10;;;;;;;;;;5110694;28;20562;-76
2024/03/11 11:19:44;;;;;;;0.10;0.10;;;;;;;;;;5090193;28;20276;-77
2024/03/11 11:22:11;;;;;;;0.10;0.10;;;;;;;;;;5112521;27;20464;-76
2024/03/11 11:24:39;;;;;;;0.10;0.10;;;;;;;;;;5090114;28;20423;-76
2024/03/11 11:27:07;;;;;;;0.00;0.00;;;;;;;;;;5111564;28;20430;-76
2024/03/11 11:29:35;;;;;;;0.10;0.10;;;;;;;;;;5089963;28;20216;-77
2024/03/11 11:32:03;;;;;;;0.10;0.10;;;;;;;;;;5110291;27;20310;-78
2024/03/11 11:34:48;;;;;;;0.03;0.03;;;;;;;;;;5091703;28;20232;-78
2024/03/11 11:37:30;;;;;;;0.00;0.00;;;;;;;;;;5112222;28;20237;-77
2024/03/11 11:39:57;;;;;;;0.00;0.00;;;;;;;;;;5089879;28;20203;-77
2024/03/11 11:42:33;;;;;;;0.00;0.00;;;;;;;;;;5112175;27;20300;-77
2024/03/11 11:45:01;;;;;;;0.00;0.00;;;;;;;;;;5089804;28;20364;-78
2024/03/11 11:47:28;;;;;;;0.00;0.00;;;;;;;;;;5112092;28;20295;-77
2024/03/11 11:49:54;;;;;;;0.00;0.00;;;;;;;;;;5089777;28;20605;-76
2024/03/11 11:52:22;;;;;;;0.00;0.00;;;;;;;;;;5112160;28;20237;-76
2024/03/11 11:54:50;;;;;;;0.00;0.00;;;;;;;;;;5089817;28;20244;-78
2024/03/11 11:57:19;;;;;;;0.00;0.00;;;;;;;;;;5112123;27;20313;-77
2024/03/11 11:59:47;;;;;;;0.00;0.00;;;;;;;;;;5089592;28;20199;-76
2024/03/11 12:02:19;;;;;;;0.00;0.00;;;;;;;;;;5112084;28;20238;-76
2024/03/11 12:04:48;;;;;;;0.00;0.00;;;;;;;;;;5089539;28;20261;-75
2024/03/11 12:07:18;;;;;;;0.00;0.00;;;;;;;;;;5112200;28;20238;-75
2024/03/11 12:09:48;;;;;;;0.00;0.00;;;;;;;;;;5089796;28;20223;-76
2024/03/11 12:12:24;;;;;;;0.00;0.00;;;;;;;;;;5112000;28;20249;-75
2024/03/11 12:14:51;;;;;;;0.00;0.00;;;;;;;;;;5089525;28;20246;-75
2024/03/11 12:17:18;;;;;;;0.00;0.00;;;;;;;;;;5112101;28;20245;-75
2024/03/11 12:19:45;;;;;;;0.00;0.00;;;;;;;;;;5089565;28;20210;-76
2024/03/11 12:22:13;;;;;;;0.00;0.00;;;;;;;;;;5112053;28;20473;-75
2024/03/11 12:24:41;;;;;;;0.00;0.00;;;;;;;;;;5089501;28;20207;-75
2024/03/11 12:27:12;;;;;;;3.20;0.55;;;;;;;;;;5110886;28;20247;-75
2024/03/11 12:29:40;;;;;;;1.00;0.73;;;;;;;;;;5086173;28;20191;-75
2024/03/11 12:32:11;;;;;;;0.00;0.00;;;;;;;;;;5107965;28;20238;-75
2024/03/11 12:34:39;;;;;;;0.10;0.10;;;;;;;;;;5086525;28;20425;-75
2024/03/11 12:37:06;;;;;;;0.00;0.00;;;;;;;;;;5107301;28;20443;-76
2024/03/11 12:39:42;;;;;;;0.00;0.00;;;;;;;;;;5086847;28;20203;-75
2024/03/11 12:42:09;;;;;;;0.00;0.00;;;;;;;;;;5108078;28;20309;-75
2024/03/11 12:44:36;;;;;;;0.00;0.00;;;;;;;;;;5086242;28;20258;-75
2024/03/11 12:47:04;;;;;;;0.08;0.08;;;;;;;;;;5106349;28;20347;-76
2024/03/11 12:49:31;;;;;;;0.00;0.00;;;;;;;;;;5087459;28;20562;-76
2024/03/11 12:52:03;;;;;;;0.20;0.20;;;;;;;;;;5105083;28;20279;-75
2024/03/11 12:54:30;;;;;;;0.00;0.00;;;;;;;;;;5087712;28;20208;-75
2024/03/11 12:57:07;;;;;;;0.00;0.00;;;;;;;;;;5104621;28;20237;-74
2024/03/11 12:59:34;;;;;;;0.00;0.00;;;;;;;;;;5086382;28;20203;-75
2024/03/11 13:02:11;;;;;;;0.00;0.00;;;;;;;;;;5105184;28;20292;-74
2024/03/11 13:04:37;;;;;;;0.00;0.00;;;;;;;;;;5085527;28;20270;-74
2024/03/11 13:07:06;;;;;;;0.10;0.10;;;;;;;;;;5106539;28;20238;-74
2024/03/11 13:09:35;;;;;;;0.00;0.00;;;;;;;;;;5086297;28;20391;-74
2024/03/11 13:12:03;;;;;;;0.00;0.00;;;;;;;;;;5105556;28;20244;-74
2024/03/11 13:14:29;;;;;;;0.10;0.10;;;;;;;;;;5086960;28;20204;-74
2024/03/11 13:16:56;;;;;;;0.05;0.05;;;;;;;;;;5104240;28;20245;-74
2024/03/11 13:19:25;;;;;;;0.00;0.00;;;;;;;;;;5088360;28;20211;-75
2024/03/11 13:21:52;;;;;;;0.00;0.00;;;;;;;;;;5102801;28;20287;-74
2024/03/11 13:24:23;;;;;;;0.10;0.10;;;;;;;;;;5089692;28;20206;-74
2024/03/11 13:26:50;;;;;;;0.10;0.10;;;;;;;;;;5102451;28;20500;-74
2024/03/11 13:29:17;;;;;;;0.00;0.00;;;;;;;;;;5090234;28;20211;-74
2024/03/11 13:31:44;;;;;;;0.00;0.00;;;;;;;;;;5100382;28;20247;-75
2024/03/11 13:34:10;;;;;;;0.00;0.00;;;;;;;;;;5091936;28;20286;-75
2024/03/11 13:36:37;;;;;;;0.00;0.00;;;;;;;;;;5098374;28;20245;-75
2024/03/11 13:39:15;;;;;;;0.00;0.00;;;;;;;;;;5093128;28;20203;-74
2024/03/11 13:41:43;;;;;;;0.00;0.00;;;;;;;;;;5099503;28;20249;-75
2024/03/11 13:44:10;;;;;;;0.00;0.00;;;;;;;;;;5091799;28;20387;-74
2024/03/11 13:46:37;;;;;;;0.00;0.00;;;;;;;;;;5098362;28;20242;-75
2024/03/11 13:49:03;;;;;;;0.00;0.00;;;;;;;;;;5092973;28;20210;-75
2024/03/11 13:51:30;;;;;;;0.00;0.00;;;;;;;;;;5096451;28;20238;-74
2024/03/11 13:53:56;;;;;;;0.00;0.00;;;;;;;;;;5095045;28;20199;-74
2024/03/11 13:56:23;;;;;;;0.00;0.00;;;;;;;;;;5094301;28;20245;-75
2024/03/11 13:58:50;;;;;;;0.00;0.00;;;;;;;;;;5097059;28;20210;-75
2024/03/11 14:01:18;;;;;;;0.00;0.00;;;;;;;;;;5092670;28;20238;-75
2024/03/11 14:03:44;;;;;;;0.00;0.00;;;;;;;;;;5098295;28;20230;-74
2024/03/11 14:06:12;;;;;;;0.00;0.00;;;;;;;;;;5090851;28;20284;-74
2024/03/11 14:08:39;;;;;;;0.10;0.10;;;;;;;;;;5099932;28;20204;-76
2024/03/11 14:11:06;;;;;;;0.00;0.00;;;;;;;;;;5089155;28;20238;-74
2024/03/11 14:13:33;;;;;;;0.00;0.00;;;;;;;;;;5101196;28;20203;-74
2024/03/11 14:16:01;;;;;;;0.03;0.03;;;;;;;;;;5087135;28;20237;-74
2024/03/11 14:18:27;;;;;;;0.00;0.00;;;;;;;;;;5103037;28;20208;-73
2024/03/11 14:20:54;;;;;;;0.00;0.00;;;;;;;;;;5084641;28;20237;-74
2024/03/11 14:23:20;;;;;;;0.00;0.00;;;;;;;;;;5104633;28;20204;-73
2024/03/11 14:25:46;;;;;;;0.10;0.10;;;;;;;;;;5081632;28;20241;-74
2024/03/11 14:28:13;;;;;;;0.00;0.00;;;;;;;;;;5108265;28;20266;-75
2024/03/11 14:30:40;;;;;;;0.00;0.00;;;;;;;;;;5081864;28;20264;-75
2024/03/11 14:33:08;;;;;;;0.10;0.10;;;;;;;;;;5107893;28;20191;-75
2024/03/11 14:35:35;;;;;;;0.00;0.00;;;;;;;;;;5080750;28;20499;-76
2024/03/11 14:38:02;;;;;;;0.00;0.00;;;;;;;;;;5109449;28;20195;-76
2024/03/11 14:40:32;;;;;;;0.00;0.00;;;;;;;;;;5078749;28;20206;-76
2024/03/11 14:42:58;;;;;;;0.00;0.00;;;;;;;;;;5109963;28;20222;-75
2024/03/11 14:45:26;;;;;;;0.00;0.00;;;;;;;;;;5077496;28;20261;-75
2024/03/11 14:47:52;;;;;;;0.10;0.10;;;;;;;;;;5111469;28;20206;-75